Terminal Aerodrome Forecast
Issued by NWS

Home | Current Version | Previous Version | Text Only | Print | Product List | Glossary On
Versions: 1 2 3 4 5 6 7 8 9 10 11 12
000
FTUS45 KREV 151720
TAFCXP
TAF
KCXP 151720Z 1518/1618 VRB03KT P6SM SCT250
     FM152100 08008KT P6SM BKN200
     FM160000 VRB03KT P6SM BKN150 OVC200
     FM160900 34009KT P6SM VCSH BKN040 BKN070
     FM161400 35012G22KT P6SM SCT020=

USA.gov is the U.S. government's official web portal to all federal, state and local government web resources and services.